Time;durP1;ratioP1;P1;durP2;ratioP2;P2;SDS_P1;SDS_P2;PMS_P1;PMS_P2;Temp;Humidity;BMP_temperature;BMP_pressure;BME280_temperature;BME280_humidity;BME280_pressure;Samples;Min_cycle;Max_cycle;Signal;HPM_P1;HPM_P2
2021/05/31 00:01:11;;;;;;;7.75;4.78;;;;;;;4.46;80.40;96076.91;5092544;28;20040;-78
2021/05/31 00:03:36;;;;;;;10.73;5.10;;;;;;;4.37;80.90;96072.97;5090982;28;20051;-77
2021/05/31 00:06:02;;;;;;;10.43;5.07;;;;;;;4.29;81.97;96072.22;5110595;28;20070;-77
2021/05/31 00:08:28;;;;;;;8.10;4.88;;;;;;;4.27;81.60;96079.47;5103677;28;20470;-77
2021/05/31 00:10:53;;;;;;;10.00;5.07;;;;;;;4.26;82.05;96082.31;5111368;28;20035;-77
2021/05/31 00:13:19;;;;;;;7.60;4.82;;;;;;;4.21;81.19;96076.91;5107078;28;20134;-77
2021/05/31 00:15:46;;;;;;;7.07;4.68;;;;;;;4.17;81.67;96068.75;5109763;28;20035;-78
2021/05/31 00:18:14;;;;;;;8.35;4.43;;;;;;;4.11;81.48;96074.84;5106632;28;20398;-77
2021/05/31 00:20:40;;;;;;;8.57;4.85;;;;;;;4.09;82.38;96076.84;5103777;28;20036;-77
2021/05/31 00:23:05;;;;;;;7.57;4.82;;;;;;;4.05;82.59;96070.47;5102986;28;20517;-77
2021/05/31 00:25:31;;;;;;;8.77;4.97;;;;;;;3.96;83.01;96068.13;5108199;28;20035;-78
2021/05/31 00:27:56;;;;;;;7.35;5.07;;;;;;;3.95;82.49;96076.13;5111888;28;20493;-77
2021/05/31 00:30:23;;;;;;;7.80;5.03;;;;;;;3.93;82.31;96078.16;5108197;28;20043;-79
2021/05/31 00:32:51;;;;;;;6.68;4.40;;;;;;;3.88;82.09;96071.00;5108245;28;20115;-78
2021/05/31 00:35:17;;;;;;;6.60;4.43;;;;;;;3.84;82.47;96069.84;5101018;28;20722;-79
2021/05/31 00:37:43;;;;;;;10.77;4.88;;;;;;;3.86;81.33;96067.81;5094472;28;20040;-78
2021/05/31 00:40:10;;;;;;;8.77;4.65;;;;;;;3.84;81.68;96075.03;5100788;28;20043;-78
2021/05/31 00:42:36;;;;;;;7.97;4.47;;;;;;;3.80;81.95;96068.66;5111419;28;20063;-78
2021/05/31 00:45:03;;;;;;;8.77;5.00;;;;;;;3.64;83.21;96065.56;5108719;28;20035;-79
2021/05/31 00:47:29;;;;;;;7.60;4.95;;;;;;;3.66;82.22;96064.56;5112141;27;20046;-79
2021/05/31 00:49:54;;;;;;;7.03;4.28;;;;;;;3.62;82.67;96067.59;5102800;28;20461;-78
2021/05/31 00:52:22;;;;;;;8.05;4.85;;;;;;;3.66;82.31;96072.38;5109072;28;20039;-78
2021/05/31 00:54:47;;;;;;;8.88;4.70;;;;;;;3.64;82.09;96054.38;5106502;28;20032;-79
2021/05/31 00:57:13;;;;;;;9.05;4.57;;;;;;;3.66;82.39;96051.53;5105115;28;20689;-79
2021/05/31 00:59:38;;;;;;;7.93;5.20;;;;;;;3.62;82.17;96056.38;5105382;28;20131;-79
2021/05/31 01:02:04;;;;;;;8.75;4.82;;;;;;;3.61;82.53;96055.56;5104094;28;20061;-78
2021/05/31 01:04:30;;;;;;;7.45;4.80;;;;;;;3.54;82.27;96059.25;5110103;28;20092;-78
2021/05/31 01:07:15;;;;;;;7.40;4.57;;;;;;;3.45;83.89;96062.09;5103387;28;20046;-78
2021/05/31 01:10:04;;;;;;;;;;;;;;;3.46;83.54;96062.88;5100069;28;20072;-78
2021/05/31 01:12:33;;;;;;;7.05;4.47;;;;;;;3.45;82.12;96056.09;5094474;28;20401;-79
2021/05/31 01:15:12;;;;;;;8.02;4.65;;;;;;;3.36;82.63;96052.97;5098442;28;20105;-79
2021/05/31 01:17:54;;;;;;;8.48;4.90;;;;;;;3.32;82.96;96050.97;5099672;28;20497;-77
2021/05/31 01:20:34;;;;;;;8.55;4.63;;;;;;;3.23;83.80;96059.03;5109251;28;20124;-80
2021/05/31 01:23:03;;;;;;;7.47;4.80;;;;;;;3.17;83.91;96059.84;5102816;28;20039;-79
2021/05/31 01:25:44;;;;;;;9.55;5.30;;;;;;;3.18;84.50;96056.25;5111433;28;20039;-78
2021/05/31 01:28:12;;;;;;;7.43;4.82;;;;;;;3.25;84.25;96057.00;5109032;28;20100;-78
2021/05/31 01:30:44;;;;;;;8.35;4.72;;;;;;;3.25;83.51;96048.41;5111221;28;20107;-79
2021/05/31 01:33:14;;;;;;;8.02;4.38;;;;;;;3.19;83.16;96047.44;5109294;28;20043;-78
2021/05/31 01:35:41;;;;;;;7.32;4.53;;;;;;;3.20;83.75;96038.63;5109010;28;20040;-78
2021/05/31 01:38:06;;;;;;;8.55;4.40;;;;;;;3.21;82.55;96042.81;5094867;28;20063;-78
2021/05/31 01:40:33;;;;;;;9.85;5.10;;;;;;;3.20;83.46;96043.81;5109802;28;20071;-78
2021/05/31 01:43:01;;;;;;;9.65;5.13;;;;;;;3.15;83.86;96046.28;5107836;28;20050;-78
2021/05/31 01:45:28;;;;;;;8.75;5.10;;;;;;;3.05;85.24;96045.94;5109667;28;20049;-78
2021/05/31 01:47:54;;;;;;;9.48;5.00;;;;;;;3.03;84.50;96042.72;5093012;28;20497;-79
2021/05/31 01:50:19;;;;;;;7.55;5.25;;;;;;;3.06;84.17;96040.53;5105177;28;20413;-79
2021/05/31 01:52:46;;;;;;;9.95;5.03;;;;;;;3.04;83.64;96041.72;5109550;28;20035;-78
2021/05/31 01:55:15;;;;;;;7.18;4.60;;;;;;;3.00;84.08;96032.75;5110678;28;20040;-78
2021/05/31 01:57:45;;;;;;;7.03;4.68;;;;;;;2.89;83.91;96037.59;5096829;28;20039;-78
2021/05/31 02:00:12;;;;;;;9.88;5.13;;;;;;;2.77;83.59;96034.03;5111046;28;20039;-78
2021/05/31 02:02:38;;;;;;;8.93;4.75;;;;;;;2.73;83.26;96036.28;5110735;28;20040;-77
2021/05/31 02:05:07;;;;;;;10.25;4.40;;;;;;;2.80;83.65;96033.63;5104020;28;20053;-78
2021/05/31 02:07:34;;;;;;;8.10;4.80;;;;;;;2.94;82.63;96034.38;5108393;28;20363;-78
2021/05/31 02:10:00;;;;;;;9.35;5.07;;;;;;;2.97;82.18;96025.38;5095590;28;20070;-78
2021/05/31 02:12:32;;;;;;;11.32;4.82;;;;;;;2.80;83.05;96027.63;5101017;28;20067;-78
2021/05/31 02:14:58;;;;;;;7.60;4.65;;;;;;;2.71;84.06;96029.69;5109829;28;20110;-77
2021/05/31 02:17:42;;;;;;;10.60;5.15;;;;;;;2.70;83.91;96022.88;5109487;28;20459;-78
2021/05/31 02:20:18;;;;;;;11.13;4.43;;;;;;;2.71;82.96;96027.06;5106733;28;20070;-78
2021/05/31 02:22:47;;;;;;;7.90;4.88;;;;;;;2.68;83.46;96024.91;5106685;28;20791;-78
2021/05/31 02:25:15;;;;;;;7.35;4.70;;;;;;;2.60;83.69;96024.13;5095737;28;20092;-78
2021/05/31 02:27:42;;;;;;;7.80;4.90;;;;;;;2.52;84.75;96021.75;5116783;27;20088;-78
2021/05/31 02:30:09;;;;;;;7.45;4.45;;;;;;;2.54;84.24;96018.94;5099480;28;20072;-78
2021/05/31 02:32:34;;;;;;;7.30;4.30;;;;;;;2.47;84.62;96019.00;5116317;27;20046;-78
2021/05/31 02:35:00;;;;;;;8.48;4.95;;;;;;;2.44;84.54;96014.19;5100641;27;20282;-78
2021/05/31 02:37:37;;;;;;;7.47;4.50;;;;;;;2.49;83.70;96008.38;5111900;28;20137;-78
2021/05/31 02:40:05;;;;;;;8.40;4.13;;;;;;;2.49;83.26;96016.97;5112283;28;20497;-78
2021/05/31 02:42:37;;;;;;;8.13;4.38;;;;;;;2.47;83.95;96012.97;5117309;27;20054;-78
2021/05/31 02:45:03;;;;;;;7.50;4.60;;;;;;;2.47;83.01;96000.81;5116587;28;20162;-78
2021/05/31 02:47:29;;;;;;;9.32;4.50;;;;;;;2.38;83.51;96004.63;5106124;27;20047;-78
2021/05/31 02:49:54;;;;;;;9.25;4.72;;;;;;;2.34;84.49;96006.03;5112821;28;20405;-78
2021/05/31 02:52:20;;;;;;;7.03;3.92;;;;;;;2.31;84.00;96003.84;5114849;28;20031;-78
2021/05/31 02:54:45;;;;;;;8.32;4.68;;;;;;;2.30;84.41;96002.22;5116482;28;20042;-77
2021/05/31 02:57:11;;;;;;;7.60;4.13;;;;;;;2.35;83.88;95989.44;5115768;27;20047;-78
2021/05/31 02:59:36;;;;;;;9.30;4.70;;;;;;;2.31;83.77;96001.25;5116344;27;20408;-78
2021/05/31 03:02:02;;;;;;;7.30;4.00;;;;;;;2.32;83.32;95989.84;5115875;28;20043;-78
2021/05/31 03:04:28;;;;;;;7.03;4.47;;;;;;;2.23;83.49;95992.66;5116718;28;20084;-78
2021/05/31 03:06:54;;;;;;;7.15;4.57;;;;;;;2.16;85.00;95997.09;5114292;28;20043;-78
2021/05/31 03:09:19;;;;;;;7.70;4.75;;;;;;;2.18;84.30;95994.28;5111005;27;20039;-77
2021/05/31 03:11:45;;;;;;;7.93;4.20;;;;;;;2.11;84.09;95993.50;5117049;27;20127;-78
2021/05/31 03:14:11;;;;;;;6.40;4.10;;;;;;;2.10;84.45;95991.91;5117103;27;20496;-77
2021/05/31 03:16:36;;;;;;;8.52;4.50;;;;;;;2.10;83.86;95991.91;5107440;27;20062;-78
2021/05/31 03:19:02;;;;;;;8.73;4.18;;;;;;;2.07;84.23;95993.91;5109962;28;20030;-78
2021/05/31 03:21:28;;;;;;;8.18;4.85;;;;;;;2.05;84.54;95995.94;5114832;28;20042;-78
2021/05/31 03:23:54;;;;;;;8.52;4.40;;;;;;;2.02;84.10;95990.34;5103671;27;20044;-78
2021/05/31 03:26:19;;;;;;;7.60;4.45;;;;;;;2.00;84.91;95994.94;5107208;28;20050;-78
2021/05/31 03:28:45;;;;;;;6.60;4.20;;;;;;;1.98;84.51;95994.31;5111824;27;20059;-77
2021/05/31 03:31:10;;;;;;;8.07;4.53;;;;;;;1.97;85.12;95987.53;5116931;27;20054;-78
2021/05/31 03:33:36;;;;;;;8.32;4.15;;;;;;;2.02;84.25;95985.13;5108278;27;20036;-78
2021/05/31 03:36:01;;;;;;;9.75;5.10;;;;;;;2.12;84.25;95979.53;5105946;28;20115;-78
2021/05/31 03:38:27;;;;;;;6.40;4.18;;;;;;;2.13;84.04;95981.91;5096483;28;20034;-78
2021/05/31 03:40:53;;;;;;;6.85;4.30;;;;;;;2.14;83.91;95980.94;5110147;28;20040;-78
2021/05/31 03:43:18;;;;;;;9.52;4.57;;;;;;;2.13;83.58;95987.09;5093207;28;20046;-78
2021/05/31 03:45:44;;;;;;;8.75;4.30;;;;;;;2.16;83.40;95997.09;5094052;28;20550;-77
2021/05/31 03:48:11;;;;;;;9.32;4.65;;;;;;;2.11;83.84;95988.31;5101776;28;20040;-78
2021/05/31 03:50:37;;;;;;;6.47;4.22;;;;;;;2.09;84.59;95991.13;5110696;28;20568;-78
2021/05/31 03:53:03;;;;;;;7.40;4.72;;;;;;;2.12;83.91;95993.28;5111855;28;20485;-78
2021/05/31 03:55:28;;;;;;;9.25;4.55;;;;;;;2.11;84.33;95989.09;5111878;28;20036;-78
2021/05/31 03:57:54;;;;;;;10.13;4.50;;;;;;;2.13;84.68;95991.50;5108992;28;20035;-78
2021/05/31 04:00:20;;;;;;;8.27;4.60;;;;;;;2.13;84.75;95988.91;5113210;28;20501;-78
2021/05/31 04:02:45;;;;;;;7.90;5.13;;;;;;;2.19;85.22;95991.47;5098164;28;20481;-78
2021/05/31 04:05:14;;;;;;;6.75;4.55;;;;;;;2.24;84.36;95983.06;5111872;28;20048;-80
2021/05/31 04:13:28;;;;;;;8.20;4.70;;;;;;;2.41;84.14;95991.22;5092154;28;20086;-79
2021/05/31 04:15:54;;;;;;;8.02;4.25;;;;;;;2.42;84.54;95980.63;5105130;28;20055;-79
2021/05/31 04:18:19;;;;;;;9.55;4.68;;;;;;;2.51;84.80;95978.56;5109638;28;20558;-78
2021/05/31 04:20:45;;;;;;;9.07;4.75;;;;;;;2.63;84.48;95985.72;5113839;28;20067;-77
2021/05/31 04:23:10;;;;;;;7.82;4.80;;;;;;;2.71;83.74;95983.69;5110387;28;20047;-78
2021/05/31 04:25:36;;;;;;;8.65;5.20;;;;;;;2.79;84.39;95985.25;5105681;28;20031;-78
2021/05/31 04:28:02;;;;;;;10.05;5.25;;;;;;;2.93;84.13;95978.97;5103821;28;20040;-77
2021/05/31 04:30:27;;;;;;;10.90;5.38;;;;;;;2.91;84.33;95980.97;5112490;28;20043;-78
2021/05/31 04:32:53;;;;;;;10.68;5.80;;;;;;;2.99;85.00;95973.94;5110257;28;20040;-77
2021/05/31 04:35:19;;;;;;;9.88;5.75;;;;;;;3.22;84.45;95978.59;5100984;28;20413;-78
2021/05/31 04:37:44;;;;;;;11.43;5.78;;;;;;;3.50;84.22;95972.19;5110423;28;20509;-78
2021/05/31 04:40:10;;;;;;;9.38;5.35;;;;;;;3.71;83.01;95976.22;5107924;28;20040;-77
2021/05/31 04:42:36;;;;;;;10.20;5.43;;;;;;;3.78;83.55;95979.56;5113233;28;20048;-78
2021/05/31 04:45:03;;;;;;;10.25;6.35;;;;;;;3.83;83.65;95968.50;5113234;28;20493;-79
2021/05/31 04:47:29;;;;;;;11.10;6.13;;;;;;;3.94;83.18;95970.41;5112119;28;20520;-81
2021/05/31 04:49:55;;;;;;;10.50;5.97;;;;;;;4.12;83.06;95972.22;5101674;28;20036;-77
2021/05/31 04:52:21;;;;;;;10.43;6.05;;;;;;;4.23;82.84;95981.13;5098750;28;20036;-79
2021/05/31 04:54:48;;;;;;;13.23;6.38;;;;;;;4.26;82.34;95973.66;5101742;28;20032;-77
2021/05/31 04:57:14;;;;;;;10.80;6.03;;;;;;;4.32;82.02;95972.00;5093499;28;20033;-79
2021/05/31 04:59:39;;;;;;;10.52;6.10;;;;;;;4.39;83.35;95977.94;5110521;28;20049;-76
2021/05/31 05:02:05;;;;;;;10.85;6.53;;;;;;;4.48;83.38;95981.03;5112567;28;20066;-76
2021/05/31 05:04:30;;;;;;;10.95;6.68;;;;;;;4.56;83.77;95979.94;5113158;28;20046;-78
2021/05/31 05:06:56;;;;;;;11.77;7.00;;;;;;;4.62;83.68;95982.47;5112802;28;20032;-76
2021/05/31 05:09:22;;;;;;;8.57;5.57;;;;;;;4.76;83.88;95982.31;5095791;28;20055;-76
2021/05/31 05:11:47;;;;;;;12.85;6.85;;;;;;;4.79;84.20;95987.09;5108940;28;20055;-78
2021/05/31 05:14:13;;;;;;;12.00;7.20;;;;;;;4.84;84.04;95984.59;5113277;28;20553;-78
2021/05/31 05:16:38;;;;;;;11.00;6.43;;;;;;;5.21;82.84;95981.88;5110947;28;20553;-78
2021/05/31 05:19:04;;;;;;;14.07;7.30;;;;;;;5.25;82.11;95977.03;5103710;28;20044;-77
2021/05/31 05:21:29;;;;;;;16.48;7.25;;;;;;;5.53;80.28;95984.22;5112781;28;20124;-76
2021/05/31 05:23:55;;;;;;;11.88;7.15;;;;;;;5.53;79.63;95978.97;5107571;28;20039;-77
2021/05/31 05:26:20;;;;;;;13.73;7.28;;;;;;;5.61;81.65;95978.66;5110219;28;20101;-79
2021/05/31 05:28:49;;;;;;;11.70;6.70;;;;;;;5.72;81.15;95970.03;5110241;28;20040;-76
2021/05/31 05:31:15;;;;;;;10.05;6.82;;;;;;;5.77;79.87;95976.41;5111728;28;20040;-77
2021/05/31 05:33:44;;;;;;;19.77;7.30;;;;;;;5.87;79.91;95984.47;5096502;28;20040;-77
2021/05/31 05:41:35;;;;;;;12.25;7.68;;;;;;;6.39;78.11;95979.34;5108171;28;20182;-79
2021/05/31 05:46:45;;;;;;;13.98;7.65;;;;;;;6.17;79.46;95981.75;5107808;28;20032;-79
2021/05/31 05:49:11;;;;;;;10.68;7.70;;;;;;;6.55;79.00;95977.81;5105341;28;20036;-76
2021/05/31 05:51:37;;;;;;;11.40;7.25;;;;;;;6.67;77.95;95979.59;5112218;28;20176;-78
2021/05/31 05:54:04;;;;;;;11.18;7.35;;;;;;;6.90;77.74;95983.97;5102385;28;20058;-76
2021/05/31 05:56:30;;;;;;;12.80;7.30;;;;;;;7.20;76.09;95982.91;5106370;28;20043;-77
2021/05/31 05:58:56;;;;;;;16.17;8.45;;;;;;;7.32;74.92;95986.25;5093572;28;20501;-78
2021/05/31 06:01:22;;;;;;;13.02;7.82;;;;;;;7.43;74.63;95976.75;5110862;28;20039;-78
2021/05/31 06:03:51;;;;;;;15.23;7.97;;;;;;;7.48;73.84;95983.88;5103472;28;20046;-77
2021/05/31 06:06:18;;;;;;;12.32;7.63;;;;;;;7.32;75.98;95981.00;5110816;28;20039;-78
2021/05/31 06:08:44;;;;;;;12.55;6.97;;;;;;;7.29;77.43;95971.03;5107089;28;20472;-78
2021/05/31 06:11:09;;;;;;;15.77;7.78;;;;;;;7.54;74.58;95973.28;5102357;28;20044;-78
2021/05/31 06:13:35;;;;;;;12.77;7.60;;;;;;;7.81;72.48;95977.84;5101637;28;20043;-78
2021/05/31 06:16:02;;;;;;;9.65;7.13;;;;;;;7.69;74.68;95980.56;5110909;28;20040;-78
2021/05/31 06:18:30;;;;;;;19.75;7.65;;;;;;;8.08;71.80;95983.22;5108989;28;20047;-77
2021/05/31 06:20:57;;;;;;;11.45;7.03;;;;;;;8.00;74.07;95986.22;5109050;28;20036;-77
2021/05/31 06:23:23;;;;;;;11.85;7.50;;;;;;;8.19;72.03;95983.34;5109971;28;20111;-78
2021/05/31 06:25:48;;;;;;;15.23;7.45;;;;;;;8.32;71.28;95983.00;5109941;28;20501;-77
2021/05/31 06:28:15;;;;;;;11.27;7.22;;;;;;;8.39;70.82;95983.63;5103256;28;20059;-77
2021/05/31 06:30:40;;;;;;;12.70;6.70;;;;;;;8.41;71.62;95981.53;5102353;28;20168;-78
2021/05/31 06:33:06;;;;;;;9.45;6.88;;;;;;;8.41;71.29;95978.91;5101980;28;20043;-78
2021/05/31 06:35:32;;;;;;;8.88;6.75;;;;;;;8.32;72.60;95977.75;5110566;28;20043;-78
2021/05/31 06:37:58;;;;;;;10.93;7.22;;;;;;;8.42;71.76;95972.63;5096687;28;20045;-78
2021/05/31 06:40:24;;;;;;;9.65;6.65;;;;;;;8.57;71.55;95979.13;5092410;28;20089;-78
2021/05/31 06:42:50;;;;;;;12.85;6.32;;;;;;;9.12;68.15;95978.16;5097312;28;20032;-78
2021/05/31 06:45:23;;;;;;;8.05;6.20;;;;;;;8.94;67.79;95978.50;5108086;28;20050;-77
2021/05/31 06:47:52;;;;;;;11.40;6.95;;;;;;;9.08;68.05;95977.06;5104555;28;20035;-78
2021/05/31 06:50:18;;;;;;;9.65;6.43;;;;;;;9.02;68.87;95970.16;5111437;28;20036;-78
2021/05/31 06:52:44;;;;;;;9.95;6.90;;;;;;;9.05;69.57;95968.88;5109305;28;20101;-77
2021/05/31 06:55:11;;;;;;;13.70;6.72;;;;;;;9.28;68.57;95957.25;5107884;28;20522;-77
2021/05/31 06:57:37;;;;;;;9.00;6.22;;;;;;;9.43;67.33;95965.28;5093094;28;20065;-78
2021/05/31 07:00:08;;;;;;;11.20;6.20;;;;;;;9.42;67.53;95963.69;5101612;28;20099;-78
2021/05/31 07:02:33;;;;;;;11.52;6.47;;;;;;;9.69;67.31;95957.59;5093688;28;20088;-78
2021/05/31 07:04:59;;;;;;;10.73;6.53;;;;;;;9.58;66.36;95966.44;5102634;28;20082;-77
2021/05/31 07:07:24;;;;;;;10.40;6.38;;;;;;;9.67;67.63;95964.97;5097488;28;20067;-77
2021/05/31 07:09:50;;;;;;;10.23;6.47;;;;;;;9.83;66.39;95964.00;5106243;28;20039;-78
2021/05/31 07:12:17;;;;;;;9.80;5.80;;;;;;;9.67;67.52;95964.97;5111157;28;20044;-78
2021/05/31 07:14:48;;;;;;;11.00;6.88;;;;;;;9.81;66.73;95966.09;5114239;28;20489;-77
2021/05/31 07:17:14;;;;;;;10.50;6.00;;;;;;;9.76;67.10;95963.44;5111481;28;20031;-77
2021/05/31 07:19:43;;;;;;;15.88;6.22;;;;;;;10.00;65.10;95963.06;5102270;28;20044;-78
2021/05/31 07:22:09;;;;;;;12.30;6.30;;;;;;;10.22;64.65;95970.81;5111871;28;20043;-78
2021/05/31 07:24:35;;;;;;;9.27;5.93;;;;;;;10.34;62.09;95973.25;5110481;28;20047;-78
2021/05/31 07:27:01;;;;;;;9.27;5.60;;;;;;;10.26;63.85;95976.34;5108428;28;20544;-78
2021/05/31 07:29:27;;;;;;;7.38;5.60;;;;;;;10.37;63.06;95967.47;5112389;28;20046;-78
2021/05/31 07:31:53;;;;;;;7.65;5.22;;;;;;;10.51;61.62;95973.84;5112376;28;20039;-78
2021/05/31 07:34:18;;;;;;;7.53;5.53;;;;;;;10.38;62.27;95974.34;5110134;28;20035;-78
2021/05/31 07:36:44;;;;;;;8.45;5.15;;;;;;;10.41;63.68;95973.81;5105893;28;20040;-78
2021/05/31 07:39:10;;;;;;;12.05;5.85;;;;;;;10.60;62.69;95960.22;5094932;28;20051;-78
2021/05/31 07:41:36;;;;;;;9.23;5.18;;;;;;;10.58;61.42;95966.50;5099696;28;20065;-78
2021/05/31 07:44:03;;;;;;;7.25;4.88;;;;;;;10.73;61.33;95964.97;5104040;28;20118;-78
2021/05/31 07:46:28;;;;;;;7.13;5.05;;;;;;;10.67;60.82;95966.03;5105792;28;20082;-78
2021/05/31 07:48:54;;;;;;;10.15;5.10;;;;;;;10.68;60.22;95967.63;5110262;28;20059;-80
2021/05/31 07:51:21;;;;;;;12.30;4.82;;;;;;;10.94;58.80;95970.31;5111645;28;20151;-77
2021/05/31 07:53:52;;;;;;;8.35;4.75;;;;;;;10.82;58.38;95973.97;5115306;28;20044;-78
2021/05/31 07:56:19;;;;;;;9.63;4.75;;;;;;;11.08;57.58;95971.41;5106529;28;20123;-78
2021/05/31 07:58:45;;;;;;;5.93;4.22;;;;;;;11.10;59.70;95966.66;5096757;28;20044;-78
2021/05/31 08:01:11;;;;;;;7.63;4.35;;;;;;;11.06;59.27;95970.84;5113395;28;20046;-79
2021/05/31 08:03:39;;;;;;;7.05;4.90;;;;;;;11.12;58.02;95964.56;5096529;28;20040;-78
2021/05/31 08:06:04;;;;;;;6.20;4.53;;;;;;;11.25;55.38;95966.69;5097614;28;20040;-80
2021/05/31 08:08:30;;;;;;;6.68;3.90;;;;;;;11.26;54.70;95963.00;5098276;28;20048;-80
2021/05/31 08:10:56;;;;;;;7.45;3.95;;;;;;;11.27;55.75;95964.56;5109203;28;20036;-80
2021/05/31 08:13:23;;;;;;;6.75;4.30;;;;;;;11.23;56.30;95958.25;5118414;28;20124;-80
2021/05/31 08:15:51;;;;;;;5.78;4.35;;;;;;;11.22;55.89;95964.56;5104592;28;20035;-78
2021/05/31 08:18:18;;;;;;;8.93;4.22;;;;;;;11.48;55.89;95964.59;5098221;28;20504;-78
2021/05/31 08:20:43;;;;;;;7.40;4.30;;;;;;;11.55;54.90;95954.59;5105740;28;20107;-79
2021/05/31 08:23:09;;;;;;;6.80;4.25;;;;;;;11.41;55.27;95953.53;5113872;27;20111;-77
2021/05/31 08:25:34;;;;;;;5.93;4.13;;;;;;;11.54;55.01;95958.25;5114739;28;20051;-77
2021/05/31 08:28:02;;;;;;;7.93;4.30;;;;;;;11.64;54.64;95962.75;5113627;28;20053;-78
2021/05/31 08:30:29;;;;;;;8.13;4.80;;;;;;;11.66;55.04;95965.13;5115120;28;20462;-77
2021/05/31 08:32:55;;;;;;;7.65;4.63;;;;;;;11.65;55.63;95958.25;5110115;28;20039;-77
2021/05/31 08:35:20;;;;;;;8.90;5.07;;;;;;;11.76;55.20;95954.56;5111486;28;20541;-78
2021/05/31 08:37:46;;;;;;;7.82;4.53;;;;;;;11.79;53.11;95948.75;5094017;28;20040;-77
2021/05/31 08:40:12;;;;;;;6.65;4.53;;;;;;;11.67;55.34;95945.63;5103145;28;20035;-77
2021/05/31 08:42:39;;;;;;;8.40;5.00;;;;;;;11.89;54.40;95953.22;5098695;28;20062;-77
2021/05/31 08:45:07;;;;;;;7.22;4.57;;;;;;;11.86;53.95;95949.25;5093529;28;20051;-77
2021/05/31 08:47:41;;;;;;;7.43;4.20;;;;;;;12.12;51.28;95941.34;5107877;28;20043;-78
2021/05/31 08:50:08;;;;;;;8.40;4.33;;;;;;;12.18;52.79;95950.81;5105737;28;20114;-77
2021/05/31 08:52:35;;;;;;;5.72;4.53;;;;;;;12.57;53.21;95952.00;5113477;28;20340;-77
2021/05/31 08:55:00;;;;;;;7.82;4.60;;;;;;;12.48;52.88;95951.75;5112646;28;20039;-77
2021/05/31 08:57:26;;;;;;;8.45;5.00;;;;;;;12.46;51.16;95945.97;5107304;28;20050;-76
2021/05/31 08:59:54;;;;;;;5.85;4.30;;;;;;;12.50;52.16;95952.31;5106514;28;20271;-77
2021/05/31 09:02:20;;;;;;;7.47;4.53;;;;;;;12.45;51.70;95949.66;5091397;28;20162;-77
2021/05/31 09:04:51;;;;;;;6.93;4.55;;;;;;;12.63;51.02;95951.72;5095419;28;20173;-77
2021/05/31 09:07:21;;;;;;;6.30;4.18;;;;;;;12.65;52.27;95949.56;5091369;28;20044;-77
2021/05/31 09:09:47;;;;;;;9.55;5.00;;;;;;;12.94;53.42;95956.03;5100038;28;20047;-78
2021/05/31 09:12:20;;;;;;;6.72;4.95;;;;;;;12.94;51.71;95946.28;5112950;28;20453;-78
2021/05/31 09:14:54;;;;;;;6.50;5.00;;;;;;;13.07;51.42;95954.66;5112849;28;20044;-77
2021/05/31 09:17:41;;;;;;;6.85;4.97;;;;;;;12.93;51.54;95949.97;5104789;28;20111;-77
2021/05/31 09:20:08;;;;;;;8.63;4.80;;;;;;;12.97;52.52;95948.38;5104722;28;20040;-77
2021/05/31 09:22:48;;;;;;;8.98;4.75;;;;;;;13.47;51.92;95960.75;5115142;28;20039;-75
2021/05/31 09:25:29;;;;;;;6.97;5.20;;;;;;;13.55;50.10;95949.59;5116435;28;20040;-78
2021/05/31 09:27:55;;;;;;;8.45;4.90;;;;;;;13.29;49.87;95952.38;5104058;28;20161;-77
2021/05/31 09:30:33;;;;;;;7.05;4.57;;;;;;;13.56;50.09;95943.25;5108342;28;20036;-76
2021/05/31 09:32:58;;;;;;;6.15;4.50;;;;;;;13.76;49.95;95944.09;5104117;28;20063;-77
2021/05/31 09:35:24;;;;;;;7.57;4.93;;;;;;;13.79;49.90;95944.34;5102278;28;20040;-78
2021/05/31 09:37:50;;;;;;;9.68;4.38;;;;;;;13.69;49.50;95942.59;5107146;28;20044;-77
2021/05/31 09:40:26;;;;;;;7.55;4.40;;;;;;;13.83;50.00;95944.56;5094767;28;20040;-77
2021/05/31 09:42:55;;;;;;;11.82;4.82;;;;;;;13.87;48.58;95940.31;5106887;28;20027;-77
2021/05/31 09:45:21;;;;;;;5.45;4.10;;;;;;;13.77;47.04;95948.34;5115292;28;20125;-76
2021/05/31 09:47:47;;;;;;;7.38;4.05;;;;;;;13.63;45.65;95951.63;5114297;28;20049;-77
2021/05/31 09:50:22;;;;;;;6.45;4.10;;;;;;;13.71;45.94;95941.53;5096934;28;20055;-77
2021/05/31 09:53:01;;;;;;;5.05;3.90;;;;;;;13.79;47.42;95948.84;5108606;28;20095;-77
2021/05/31 09:55:31;;;;;;;6.50;4.40;;;;;;;13.65;46.70;95941.56;5109675;28;20042;-77
2021/05/31 09:57:57;;;;;;;7.85;4.60;;;;;;;13.98;46.73;95936.50;5117520;28;20044;-78
2021/05/31 10:00:30;;;;;;;5.57;3.83;;;;;;;14.35;47.18;95940.34;5097384;28;20500;-77
2021/05/31 10:03:05;;;;;;;5.88;4.28;;;;;;;14.64;46.47;95936.84;5104956;28;20121;-76
2021/05/31 10:10:42;;;;;;;6.28;4.03;;;;;;;14.86;44.66;95938.16;5093754;28;20123;-77
2021/05/31 10:13:08;;;;;;;6.00;3.80;;;;;;;15.30;43.25;95937.00;5093463;28;20051;-77
2021/05/31 10:15:39;;;;;;;5.75;3.83;;;;;;;15.45;42.70;95933.31;5095335;28;20040;-77
2021/05/31 10:18:09;;;;;;;5.47;3.92;;;;;;;15.30;41.90;95931.69;5107387;28;20036;-78
2021/05/31 10:20:37;;;;;;;6.32;3.90;;;;;;;15.66;42.85;95933.75;5120781;28;20031;-74
2021/05/31 10:23:04;;;;;;;6.55;4.13;;;;;;;15.65;41.39;95924.22;5117685;28;20727;-78
2021/05/31 10:25:35;;;;;;;8.82;4.53;;;;;;;15.77;42.39;95924.56;5116705;28;20094;-81
2021/05/31 10:28:14;;;;;;;5.95;4.05;;;;;;;16.30;42.11;95935.84;5112044;28;20042;-77
2021/05/31 10:30:48;;;;;;;7.00;4.70;;;;;;;16.56;39.87;95932.66;5122333;28;20047;-76
2021/05/31 10:33:22;;;;;;;7.77;4.57;;;;;;;17.09;40.04;95924.09;5102246;28;20128;-80
2021/05/31 10:35:49;;;;;;;6.95;4.00;;;;;;;18.04;38.50;95921.59;5115657;28;20103;-80
2021/05/31 10:38:27;;;;;;;8.45;4.00;;;;;;;19.08;35.56;95918.41;5113035;28;20103;-77
2021/05/31 10:40:55;;;;;;;6.65;4.43;;;;;;;17.82;37.49;95923.97;5114072;28;20040;-77
2021/05/31 10:43:22;;;;;;;5.93;4.50;;;;;;;19.19;35.47;95919.69;5112117;28;20104;-78
2021/05/31 10:45:50;;;;;;;5.13;4.00;;;;;;;19.78;35.12;95922.88;5116417;28;20306;-77
2021/05/31 10:48:20;;;;;;;4.97;4.07;;;;;;;19.31;34.67;95920.91;5114204;28;20093;-76
2021/05/31 10:50:51;;;;;;;7.90;4.10;;;;;;;20.02;35.00;95911.69;5114041;28;20032;-76
2021/05/31 10:53:25;;;;;;;6.10;4.40;;;;;;;19.43;34.85;95912.28;5119536;28;20051;-78
2021/05/31 10:56:05;;;;;;;7.40;4.60;;;;;;;19.88;34.26;95918.03;5120931;28;20480;-76
2021/05/31 10:58:35;;;;;;;6.88;4.13;;;;;;;19.55;34.10;95915.06;5117733;28;20039;-79
2021/05/31 11:01:13;;;;;;;5.63;4.40;;;;;;;19.71;33.74;95910.00;5117018;28;20044;-76
2021/05/31 11:04:14;;;;;;;5.88;4.45;;;;;;;19.19;35.41;95918.88;5116464;28;20039;-78
2021/05/31 11:06:43;;;;;;;8.07;3.95;;;;;;;20.53;33.45;95915.22;5099483;28;20066;-78
2021/05/31 11:09:10;;;;;;;5.45;4.30;;;;;;;20.77;31.82;95913.84;5101044;28;20042;-78
2021/05/31 11:11:48;;;;;;;6.68;4.05;;;;;;;19.73;33.64;95913.94;5113562;28;20040;-80
2021/05/31 11:14:43;;;;;;;7.35;3.83;;;;;;;20.75;32.52;95910.72;5116678;27;20043;-80
2021/05/31 11:17:11;;;;;;;4.90;4.03;;;;;;;20.97;33.31;95917.63;5117840;28;20040;-78
2021/05/31 11:19:45;;;;;;;7.43;4.00;;;;;;;21.12;31.38;95913.59;5098779;27;20040;-77
2021/05/31 11:22:15;;;;;;;8.57;4.82;;;;;;;20.07;31.88;95914.19;5117015;28;20093;-80
2021/05/31 11:24:41;;;;;;;4.63;4.00;;;;;;;19.63;33.64;95916.16;5121952;28;20154;-77
2021/05/31 11:27:10;;;;;;;5.32;4.03;;;;;;;20.47;31.82;95915.72;5115533;28;20072;-78
2021/05/31 11:29:36;;;;;;;6.07;3.75;;;;;;;21.61;30.28;95911.13;5095621;28;20047;-80
2021/05/31 11:32:02;;;;;;;6.10;4.18;;;;;;;21.72;30.12;95921.41;5099671;28;20067;-78
2021/05/31 11:34:28;;;;;;;5.40;3.70;;;;;;;20.21;32.82;95912.09;5116612;28;20100;-79
2021/05/31 11:36:54;;;;;;;5.60;3.80;;;;;;;20.40;32.54;95916.22;5096534;28;20036;-78
2021/05/31 11:39:20;;;;;;;5.38;4.00;;;;;;;21.39;30.19;95900.75;5094955;28;20102;-78
2021/05/31 11:41:53;;;;;;;5.18;4.13;;;;;;;21.68;30.13;95902.56;5096180;28;20036;-78
2021/05/31 11:44:30;;;;;;;5.82;4.38;;;;;;;21.28;30.00;95901.16;5095320;28;20044;-77
2021/05/31 11:47:02;;;;;;;6.35;3.83;;;;;;;21.01;29.79;95907.06;5094779;28;20077;-77
2021/05/31 11:49:30;;;;;;;7.97;3.92;;;;;;;21.94;28.98;95910.31;5099018;28;20047;-79
2021/05/31 11:52:01;;;;;;;9.10;4.07;;;;;;;21.45;28.41;95899.47;5096158;28;20135;-79
2021/05/31 11:54:30;;;;;;;5.57;3.80;;;;;;;20.80;31.21;95902.47;5102232;28;20070;-82
2021/05/31 11:57:00;;;;;;;6.13;3.90;;;;;;;21.78;28.12;95896.00;5108989;28;20044;-80
2021/05/31 11:59:32;;;;;;;6.55;3.80;;;;;;;23.62;27.18;95891.47;5101250;28;20183;-80